Map

Track Data

SID SEASON NUMBER BASIN SUBBASIN NAME ISO_TIME NATURE LAT LON WMO_WIND WMO_PRES WMO_AGENCY TRACK_TYPE DIST2LAND LANDFALL IFLAG USA_AGENCY USA_ATCF_ID USA_LAT USA_LON USA_RECORD USA_STATUS USA_WIND USA_PRES USA_SSHS USA_R34_NE USA_R34_SE USA_R34_SW USA_R34_NW USA_R50_NE USA_R50_SE USA_R50_SW USA_R50_NW USA_R64_NE USA_R64_SE USA_R64_SW USA_R64_NW USA_POCI USA_ROCI USA_RMW USA_EYE TOKYO_LAT TOKYO_LON TOKYO_GRADE TOKYO_WIND TOKYO_PRES TOKYO_R50_DIR TOKYO_R50_LONG TOKYO_R50_SHORT TOKYO_R30_DIR TOKYO_R30_LONG TOKYO_R30_SHORT TOKYO_LAND CMA_LAT CMA_LON CMA_CAT CMA_WIND CMA_PRES HKO_LAT HKO_LON HKO_CAT HKO_WIND HKO_PRES NEWDELHI_LAT NEWDELHI_LON NEWDELHI_GRADE NEWDELHI_WIND NEWDELHI_PRES NEWDELHI_CI NEWDELHI_DP NEWDELHI_POCI REUNION_LAT REUNION_LON REUNION_TYPE REUNION_WIND REUNION_PRES REUNION_TNUM REUNION_CI REUNION_RMW REUNION_R34_NE REUNION_R34_SE REUNION_R34_SW REUNION_R34_NW REUNION_R50_NE REUNION_R50_SE REUNION_R50_SW REUNION_R50_NW REUNION_R64_NE REUNION_R64_SE REUNION_R64_SW REUNION_R64_NW BOM_LAT BOM_LON BOM_TYPE BOM_WIND BOM_PRES BOM_TNUM BOM_CI BOM_RMW BOM_R34_NE BOM_R34_SE BOM_R34_SW BOM_R34_NW BOM_R50_NE BOM_R50_SE BOM_R50_SW BOM_R50_NW BOM_R64_NE BOM_R64_SE BOM_R64_SW BOM_R64_NW BOM_ROCI BOM_POCI BOM_EYE BOM_POS_METHOD BOM_PRES_METHOD NADI_LAT NADI_LON NADI_CAT NADI_WIND NADI_PRES WELLINGTON_LAT WELLINGTON_LON WELLINGTON_WIND WELLINGTON_PRES DS824_LAT DS824_LON DS824_STAGE DS824_WIND DS824_PRES TD9636_LAT TD9636_LON TD9636_STAGE TD9636_WIND TD9636_PRES TD9635_LAT TD9635_LON TD9635_WIND TD9635_PRES TD9635_ROCI NEUMANN_LAT NEUMANN_LON NEUMANN_CLASS NEUMANN_WIND NEUMANN_PRES MLC_LAT MLC_LON MLC_CLASS MLC_WIND MLC_PRES USA_GUST BOM_GUST BOM_GUST_PER REUNION_GUST REUNION_GUST_PER USA_SEAHGT USA_SEARAD_NE USA_SEARAD_SE USA_SEARAD_SW USA_SEARAD_NW STORM_SPEED STORM_DIR
1962028S19474 1962 10 SI WA NOT_NAMED 1962-02-06 01:00:00 TS -19.2136 113.942 main 297 297 ______________ -1 4 253
1962028S19474 1962 10 SI WA NOT_NAMED 1962-02-06 03:00:00 TS -19.2500 113.815 main 302 291 ______________ -1 4 255
1962028S19474 1962 10 SI WA NOT_NAMED 1962-02-06 06:00:00 TS -19.3000 113.600 main 293 293 O________O____ jtwc_sh SH111962 -19.3000 113.600 -1 -19.3000 113.600 TC 4 262
1962028S19474 1962 10 SI WA NOT_NAMED 1962-02-06 09:00:00 TS -19.3075 113.357 main 297 299 P________P____ SH111962 -19.2976 113.350 -1 -19.2976 113.350 TC 5 270
1962028S19474 1962 10 SI WA NOT_NAMED 1962-02-06 11:00:00 TS -19.3026 113.186 main 302 302 P________P____ SH111962 -19.2983 113.183 -1 -19.2983 113.183 TC 5 272
1962028S19474 1962 10 SI WA NOT_NAMED 1962-02-06 12:00:00 TS -19.3000 113.100 main 305 305 O________O____ jtwc_sh SH111962 -19.3000 113.100 -1 -19.3000 113.100 TC 5 269
1962028S19474 1962 10 SI WA NOT_NAMED 1962-02-06 15:00:00 TS -19.3075 112.850 main 312 316 P________P____ SH111962 -19.3075 112.850 -1 -19.3075 112.850 TC 5 270
1962028S19474 1962 10 SI WA NOT_NAMED 1962-02-06 18:00:00 TS -19.3000 112.600 main 325 325 O________O____ jtwc_sh SH111962 -19.3000 112.600 -1 -19.3000 112.600 TC 5 275
1962028S19474 1962 10 SI WA NOT_NAMED 1962-02-06 21:00:00 TS -19.2650 112.343 main 340 340 P________P____ SH111962 -19.2650 112.343 -1 -19.2650 112.343 TC 5 281
1962028S19474 1962 10 SI WA NOT_NAMED 1962-02-06 23:00:00 TS -19.2250 112.178 main 355 355 P________P____ SH111962 -19.2250 112.178 -1 -19.2250 112.178 TC 5 286
1962028S19474 1962 10 SI WA NOT_NAMED 1962-02-07 00:00:00 TS -19.2000 112.100 main 360 360 O________O____ jtwc_sh SH111962 -19.2000 112.100 -1 -19.2000 112.100 TC 4 291
1962028S19474 1962 10 SI WA NOT_NAMED 1962-02-07 01:00:00 TS -19.1723 112.030 main 366 366 P________P____ SH111962 -19.1723 112.030 -1 -19.1723 112.030 TC 4 296
1962028S19474 1962 10 SI WA NOT_NAMED 1962-02-07 03:00:00 TS -19.1074 111.900 main 381 381 P________P____ SH111962 -19.1074 111.900 -1 -19.1074 111.900 TC 4 299
1962028S19474 1962 10 SI WA NOT_NAMED 1962-02-07 06:00:00 TS -19.0000 111.700 main 403 403 O________O____ jtwc_sh SH111962 -19.0000 111.700 -1 -19.0000 111.700 TC 5 296
1962028S19474 1962 10 SI WA NOT_NAMED 1962-02-07 08:00:00 TS -18.9388 111.530 main 424 424 P________P____ SH111962 -18.9388 111.530 -1 -18.9388 111.530 TC 5 291
1962028S19474 1962 10 SI WA NOT_NAMED 1962-02-07 09:00:00 TS -18.9075 111.443 main 431 431 P________P____ SH111962 -18.9075 111.443 -1 -18.9075 111.443 TC 5 293
1962028S19474 1962 10 SI WA NOT_NAMED 1962-02-07 11:00:00 TS -18.8391 111.275 main 446 446 P________P____ SH111962 -18.8391 111.275 -1 -18.8391 111.275 TC 5 295
1962028S19474 1962 10 SI WA NOT_NAMED 1962-02-07 12:00:00 TS -18.8000 111.200 main 453 453 O________O____ jtwc_sh SH111962 -18.8000 111.200 -1 -18.8000 111.200 TC 4 311
1962028S19474 1962 10 SI WA NOT_NAMED 1962-02-07 15:00:00 TS -18.6499 111.043 main 483 483 P________P____ SH111962 -18.6499 111.043 -1 -18.6499 111.043 TC 4 317
1962028S19474 1962 10 SI WA NOT_NAMED 1962-02-07 18:00:00 TS -18.5000 110.900 main 499 499 O________O____ jtwc_sh SH111962 -18.5000 110.900 -1 -18.5000 110.900 TC 4 309
1962028S19474 1962 10 SI WA NOT_NAMED 1962-02-07 21:00:00 TS -18.3999 110.723 main 521 521 P________P____ SH111962 -18.3999 110.723 -1 -18.3999 110.723 TC 4 298
1962028S19474 1962 10 SI WA NOT_NAMED 1962-02-07 23:00:00 TS -18.3364 110.581 main 536 536 P________P____ SH111962 -18.3364 110.581 -1 -18.3364 110.581 TC 5 295
1962028S19474 1962 10 SI WA NOT_NAMED 1962-02-08 00:00:00 TS -18.3000 110.500 main 543 543 O________O____ jtwc_sh SH111962 -18.3000 110.500 -1 -18.3000 110.500 TC 5 298
1962028S19474 1962 10 SI WA NOT_NAMED 1962-02-08 01:00:00 TS -18.2531 110.414 main 550 550 P________P____ SH111962 -18.2531 110.414 -1 -18.2531 110.414 TC 6 300
1962028S19474 1962 10 SI WA NOT_NAMED 1962-02-08 03:00:00 TS -18.1500 110.222 main 581 581 P________P____ SH111962 -18.1500 110.222 -1 -18.1500 110.222 TC 7 297
1962028S19474 1962 10 SI WA NOT_NAMED 1962-02-08 06:00:00 TS -18.0000 109.900 main 611 611 O________O____ jtwc_sh SH111962 -18.0000 109.900 -1 -18.0000 109.900 TC 7 293
1962028S19474 1962 10 SI WA NOT_NAMED 1962-02-08 09:00:00 TS -17.8849 109.565 main 641 649 P________P____ SH111962 -17.8849 109.565 -1 -17.8849 109.565 TC 7 288
1962028S19474 1962 10 SI WA NOT_NAMED 1962-02-08 11:00:00 TS -17.8250 109.325 main 672 672 P________P____ SH111962 -17.8250 109.325 -1 -17.8250 109.325 TC 7 284
1962028S19474 1962 10 SI WA NOT_NAMED 1962-02-08 12:00:00 TS -17.8000 109.200 main 679 679 O________O____ jtwc_sh SH111962 -17.8000 109.200 -1 -17.8000 109.200 TC 8 281
1962028S19474 1962 10 SI WA NOT_NAMED 1962-02-08 15:00:00 TS -17.7275 108.807 main 718 718 P________P____ SH111962 -17.7275 108.807 -1 -17.7275 108.807 TC 8 277
1962028S19474 1962 10 SI WA NOT_NAMED 1962-02-08 18:00:00 TS -17.7000 108.400 main 750 750 O________O____ jtwc_sh SH111962 -17.7000 108.400 -1 -17.7000 108.400 TC 8 269
1962028S19474 1962 10 SI WA NOT_NAMED 1962-02-08 21:00:00 TS -17.7349 108.008 main 783 783 P________P____ SH111962 -17.7349 108.008 -1 -17.7349 108.008 TC 8 263
1962028S19474 1962 10 SI WA NOT_NAMED 1962-02-08 23:00:00 TS -17.7780 107.739 main 802 802 P________P____ SH111962 -17.7780 107.739 -1 -17.7780 107.739 TC 8 260
1962028S19474 1962 10 SI WA NOT_NAMED 1962-02-09 00:00:00 TS -17.8000 107.600 main 811 811 O________O____ jtwc_sh SH111962 -17.8000 107.600 -1 -17.8000 107.600 TC 8 263
1962028S19474 1962 10 SI WA NOT_NAMED 1962-02-09 01:00:00 TS -17.8114 107.456 main 819 819 P________P____ SH111962 -17.8114 107.456 -1 -17.8114 107.456 TC 8 265
1962028S19474 1962 10 SI WA NOT_NAMED 1962-02-09 03:00:00 TS -17.8349 107.157 main 845 854 P________P____ SH111962 -17.8349 107.157 -1 -17.8349 107.157 TC 9 263
1962028S19474 1962 10 SI WA NOT_NAMED 1962-02-09 06:00:00 TS -17.9000 106.700 main 884 884 O________O____ jtwc_sh SH111962 -17.9000 106.700 -1 -17.9000 106.700 TC 9 257
1962028S19474 1962 10 SI WA NOT_NAMED 1962-02-09 09:00:00 TS -18.0274 106.250 main 915 918 P________P____ SH111962 -18.0274 106.250 -1 -18.0274 106.250 TC 9 251
1962028S19474 1962 10 SI WA NOT_NAMED 1962-02-09 11:00:00 TS -18.1390 105.950 main 946 940 P________P____ SH111962 -18.1390 105.950 -1 -18.1390 105.950 TC 9 248
1962028S19474 1962 10 SI WA NOT_NAMED 1962-02-09 12:00:00 TS -18.2000 105.800 main 949 949 O________O____ jtwc_sh SH111962 -18.2000 105.800 -1 -18.2000 105.800 TC 9 247
1962028S19474 1962 10 SI WA NOT_NAMED 1962-02-09 15:00:00 TS -18.3849 105.350 main 983 983 P________P____ SH111962 -18.3849 105.350 -1 -18.3849 105.350 TC 9 245
1962028S19474 1962 10 SI WA NOT_NAMED 1962-02-09 18:00:00 TS -18.6000 104.900 main 1009 1009 O________O____ jtwc_sh SH111962 -18.6000 104.900 -1 -18.6000 104.900 TC 10 242
1962028S19474 1962 10 SI WA NOT_NAMED 1962-02-09 21:00:00 TS -18.8349 104.442 main 1046 1041 P________P____ SH111962 -18.8349 104.442 -1 -18.8349 104.442 TC 10 240
1962028S19474 1962 10 SI WA NOT_NAMED 1962-02-09 23:00:00 TS -19.0083 104.144 main 1065 1061 P________P____ SH111962 -19.0083 104.144 -1 -19.0083 104.144 TC 10 238
1962028S19474 1962 10 SI WA NOT_NAMED 1962-02-10 00:00:00 TS -19.1000 104.000 main 1071 1071 O________O____ jtwc_sh SH111962 -19.1000 104.000 -1 -19.1000 104.000 TC 10 236
1962028S19474 1962 10 SI WA NOT_NAMED 1962-02-10 01:00:00 TS -19.1943 103.856 main 1076 1076 P________P____ SH111962 -19.1943 103.856 -1 -19.1943 103.856 TC 10 234
1962028S19474 1962 10 SI WA NOT_NAMED 1962-02-10 03:00:00 TS -19.3925 103.577 main 1097 1097 P________P____ SH111962 -19.3925 103.577 -1 -19.3925 103.577 TC 10 231
1962028S19474 1962 10 SI WA NOT_NAMED 1962-02-10 06:00:00 TS -19.7000 103.200 main 1125 1125 O________O____ jtwc_sh SH111962 -19.7000 103.200 -1 -19.7000 103.200 TC 9 232
1962028S19474 1962 10 SI WA NOT_NAMED 1962-02-10 09:00:00 TS -19.9250 102.862 main 1148 1155 P________P____ SH111962 -20.0026 102.883 -1 -20.0026 102.883 TC 8 228
1962028S19474 1962 10 SI WA NOT_NAMED 1962-02-10 11:00:00 TS -20.1429 102.677 main 1162 1159 P________P____ SH111962 -20.2011 102.693 -1 -20.2011 102.693 TC 9 213
1962028S19474 1962 10 SI WA NOT_NAMED 1962-02-10 12:00:00 TS -20.3000 102.600 main 1166 O________O____ jtwc_sh SH111962 -20.3000 102.600 -1 -20.3000 102.600 TC 10 204

About IBTrACS Database

This database is a web-friendly format of International Best Track Archive for Climate Stewardship (IBTrACS), a global best track data archive curated by NOAA dating back to 1842.

Updated: 2021-11-26